Time;durP1;ratioP1;P1;durP2;ratioP2;P2;SDS_P1;SDS_P2;PMS_P1;PMS_P2;Temp;Humidity;BMP_temperature;BMP_pressure;BME280_temperature;BME280_humidity;BME280_pressure;Samples;Min_cycle;Max_cycle;Signal;HPM_P1;HPM_P2
2022/09/16 00:01:45;;;;;;;5.70;1.48;;;;;;;22.81;43.64;101158.91;5015283;28;20029;-73
2022/09/16 00:04:11;;;;;;;5.72;1.92;;;;;;;22.28;44.67;101162.69;5009837;28;20033;-72
2022/09/16 00:06:36;;;;;;;6.80;1.27;;;;;;;22.19;45.20;101170.22;5027282;28;20088;-73
2022/09/16 00:09:02;;;;;;;5.20;1.15;;;;;;;22.67;44.54;101164.16;5011153;28;20505;-72
2022/09/16 00:11:30;;;;;;;7.78;1.50;;;;;;;23.06;43.88;101170.81;5012301;28;20497;-73
2022/09/16 00:13:55;;;;;;;8.25;1.60;;;;;;;23.36;43.21;101156.69;5029748;28;20021;-72
2022/09/16 00:16:24;;;;;;;4.20;1.00;;;;;;;23.36;43.55;101156.69;5016906;28;20517;-72
2022/09/16 00:18:58;;;;;;;8.23;1.58;;;;;;;23.62;42.66;101154.31;5008709;28;20121;-73
2022/09/16 00:21:25;;;;;;;2.58;1.20;;;;;;;23.49;43.13;101157.72;5010331;28;20029;-73
2022/09/16 00:23:50;;;;;;;5.10;1.65;;;;;;;23.77;42.10;101156.03;5018090;28;20025;-72
2022/09/16 00:26:16;;;;;;;5.82;1.20;;;;;;;23.11;43.32;101152.78;5014924;28;20028;-72
2022/09/16 00:28:42;;;;;;;6.18;1.60;;;;;;;23.24;42.54;101155.59;5010665;28;20057;-72
2022/09/16 00:31:08;;;;;;;3.42;1.52;;;;;;;23.42;42.07;101156.31;5010486;28;20049;-72
2022/09/16 00:33:34;;;;;;;5.15;1.05;;;;;;;23.33;42.71;101151.56;5025303;28;20060;-72
2022/09/16 00:36:09;;;;;;;6.97;1.48;;;;;;;23.18;42.31;101170.16;5031633;28;20029;-72
2022/09/16 00:38:35;;;;;;;11.95;1.58;;;;;;;22.75;42.97;101183.25;5043445;28;20121;-72
2022/09/16 00:41:00;;;;;;;8.82;1.50;;;;;;;23.28;42.19;101172.28;5026316;28;20124;-72
2022/09/16 00:43:26;;;;;;;6.90;1.63;;;;;;;22.13;42.97;101169.69;5011808;28;20120;-72
2022/09/16 00:46:03;;;;;;;11.00;1.45;;;;;;;22.15;43.00;101179.31;5020326;28;20079;-72
2022/09/16 00:48:31;;;;;;;6.13;0.70;;;;;;;22.30;42.93;101172.31;5051412;28;20059;-72
2022/09/16 00:51:00;;;;;;;2.58;0.80;;;;;;;21.28;44.92;101171.34;5050236;28;20040;-72
2022/09/16 00:53:31;;;;;;;8.57;0.90;;;;;;;22.09;43.60;101158.38;5026877;28;20477;-72
2022/09/16 00:56:02;;;;;;;5.18;0.55;;;;;;;22.34;43.78;101162.41;5032566;28;20034;-74
2022/09/16 00:58:50;;;;;;;4.15;0.82;;;;;;;22.35;42.40;101164.09;5015385;28;20041;-73
2022/09/16 01:01:16;;;;;;;4.78;0.77;;;;;;;21.58;44.57;101168.13;5028944;28;20091;-72
2022/09/16 01:03:48;;;;;;;4.50;0.60;;;;;;;22.18;43.55;101165.00;5016864;28;20494;-73
2022/09/16 01:06:16;;;;;;;8.32;0.77;;;;;;;22.55;43.16;101164.84;5032047;28;20033;-73
2022/09/16 01:08:42;;;;;;;5.57;0.70;;;;;;;22.77;43.11;101165.34;5034299;28;20036;-72
2022/09/16 01:11:08;;;;;;;4.07;0.55;;;;;;;22.22;43.94;101157.72;5032504;28;20071;-72
2022/09/16 01:13:34;;;;;;;3.20;0.60;;;;;;;22.71;43.20;101155.06;5032969;28;20560;-72
2022/09/16 01:16:09;;;;;;;2.45;0.60;;;;;;;20.98;46.40;101169.28;5030376;28;20053;-72
2022/09/16 01:18:42;;;;;;;3.05;0.70;;;;;;;19.96;49.62;101180.09;5033260;28;20026;-73
2022/09/16 01:21:17;;;;;;;8.40;1.00;;;;;;;20.29;50.33;101181.28;5059119;28;20032;-73
2022/09/16 01:24:02;;;;;;;8.63;0.90;;;;;;;20.53;49.34;101181.13;5045300;28;20029;-75
2022/09/16 01:26:56;;;;;;;4.07;0.75;;;;;;;21.50;48.04;101177.31;5049126;28;20116;-74
2022/09/16 01:29:40;;;;;;;;;;;;;;;21.14;48.41;101172.91;5045948;28;20041;-74
2022/09/16 01:32:16;;;;;;;8.20;0.70;;;;;;;20.51;49.00;101163.44;5046433;28;19948;-73
2022/09/16 01:35:08;;;;;;;6.05;2.47;;;;;;;20.81;49.97;101164.75;5063540;28;20018;-72
2022/09/16 01:37:49;;;;;;;5.28;0.52;;;;;;;20.07;49.66;101192.88;5033000;28;20389;-73
2022/09/16 01:40:48;;;;;;;5.10;0.77;;;;;;;20.65;49.36;101191.16;5033248;28;20021;-73
2022/09/16 01:43:24;;;;;;;5.97;0.70;;;;;;;19.08;52.81;101198.75;5030736;28;20167;-73
2022/09/16 01:45:54;;;;;;;3.95;0.60;;;;;;;19.44;53.54;101191.09;5038187;28;20087;-73
2022/09/16 01:48:29;;;;;;;5.15;0.50;;;;;;;19.34;53.69;101189.72;5035166;28;20029;-73
2022/09/16 01:51:03;;;;;;;3.17;0.40;;;;;;;20.87;50.01;101177.75;5032888;28;20033;-73
2022/09/16 01:53:28;;;;;;;4.20;1.05;;;;;;;21.76;48.57;101169.84;5032676;28;20382;-72
2022/09/16 01:56:21;;;;;;;4.32;0.50;;;;;;;21.37;48.68;101170.91;5032146;28;20036;-71
2022/09/16 01:59:00;;;;;;;2.13;0.50;;;;;;;21.91;48.12;101169.97;5031281;28;20438;-72
2022/09/16 02:01:33;;;;;;;1.73;0.40;;;;;;;22.39;46.82;101175.47;5032554;28;20288;-72
2022/09/16 02:04:02;;;;;;;3.00;0.65;;;;;;;22.58;46.82;101177.97;5031990;28;20029;-72
2022/09/16 02:06:30;;;;;;;3.22;0.70;;;;;;;22.56;46.48;101182.50;5030652;28;20437;-72
2022/09/16 02:09:03;;;;;;;4.65;0.52;;;;;;;22.58;47.16;101180.63;5021337;28;20033;-72
2022/09/16 02:11:29;;;;;;;2.90;0.65;;;;;;;22.33;46.42;101165.97;5027432;28;20094;-72
2022/09/16 02:14:05;;;;;;;3.05;0.90;;;;;;;22.42;47.03;101170.84;5020209;28;20157;-72
2022/09/16 02:16:47;;;;;;;5.35;0.98;;;;;;;22.06;47.55;101174.47;5012289;28;20052;-72
2022/09/16 02:19:28;;;;;;;3.13;0.70;;;;;;;22.52;46.92;101166.72;5011865;28;20080;-72
2022/09/16 02:21:56;;;;;;;2.33;0.52;;;;;;;22.50;45.92;101168.63;5024565;28;20033;-74
2022/09/16 02:24:25;;;;;;;5.72;0.63;;;;;;;22.40;46.98;101171.88;5024107;28;20039;-72
2022/09/16 02:26:59;;;;;;;4.22;0.55;;;;;;;22.86;45.97;101172.81;5032614;28;20045;-72
2022/09/16 02:29:31;;;;;;;5.28;0.70;;;;;;;22.88;45.23;101176.25;5032240;28;20029;-72
2022/09/16 02:32:00;;;;;;;15.73;0.90;;;;;;;22.78;45.30;101172.41;5024050;28;20033;-72
2022/09/16 02:34:34;;;;;;;6.72;0.95;;;;;;;22.56;45.86;101171.88;5022231;28;20026;-72
2022/09/16 02:37:11;;;;;;;5.15;1.50;;;;;;;21.49;47.10;101170.28;5031448;28;20037;-72
2022/09/16 02:39:39;;;;;;;4.72;1.00;;;;;;;22.25;46.52;101170.84;5031293;28;20033;-72
2022/09/16 02:42:05;;;;;;;5.30;0.65;;;;;;;22.31;46.58;101162.53;5026282;28;20038;-71
2022/09/16 02:44:33;;;;;;;4.55;0.70;;;;;;;22.76;45.87;101171.63;5011683;28;20033;-71
2022/09/16 02:47:30;;;;;;;3.03;1.00;;;;;;;22.80;44.98;101174.97;5041463;28;20028;-71
2022/09/16 02:50:03;;;;;;;3.42;0.70;;;;;;;23.08;44.55;101157.41;5047570;28;20057;-71
2022/09/16 02:52:39;;;;;;;11.48;1.10;;;;;;;23.36;44.11;101165.56;5029618;28;20036;-71
2022/09/16 02:55:48;;;;;;;4.22;0.70;;;;;;;23.11;44.06;101179.44;5031727;28;20370;-72
2022/09/16 02:58:14;;;;;;;5.85;0.93;;;;;;;21.77;46.07;101173.34;5010316;28;20041;-72
2022/09/16 03:00:45;;;;;;;3.45;0.70;;;;;;;22.00;46.71;101169.50;4992138;28;20080;-72
2022/09/16 03:03:11;;;;;;;6.10;0.65;;;;;;;22.12;45.82;101179.50;5019780;28;20049;-72
2022/09/16 03:05:59;;;;;;;2.42;0.80;;;;;;;21.59;46.46;101185.81;5029497;28;20103;-72
2022/09/16 03:08:24;;;;;;;8.70;1.35;;;;;;;21.67;47.52;101194.25;5030818;28;20037;-72
2022/09/16 03:10:51;;;;;;;6.57;0.50;;;;;;;19.87;50.09;101195.53;5031296;28;20397;-74
2022/09/16 03:13:31;;;;;;;3.90;0.70;;;;;;;19.31;52.56;101203.13;5018774;28;20025;-74
2022/09/16 03:16:23;;;;;;;5.53;0.80;;;;;;;20.28;49.40;101187.53;5028377;28;20526;-73
2022/09/16 03:19:23;;;;;;;4.70;0.68;;;;;;;20.16;49.74;101180.97;5025736;28;20485;-72
2022/09/16 03:22:04;;;;;;;1.60;0.40;;;;;;;19.21;50.27;101170.84;5028860;28;20041;-73
2022/09/16 03:24:39;;;;;;;2.63;0.50;;;;;;;20.93;48.34;101163.31;5011337;28;20025;-72
2022/09/16 03:27:17;;;;;;;8.30;0.95;;;;;;;20.79;48.10;101159.53;5011420;28;20033;-73
2022/09/16 03:29:48;;;;;;;2.43;0.67;;;;;;;21.51;46.58;101168.41;5030850;28;20120;-73
2022/09/16 03:32:24;;;;;;;4.35;1.10;;;;;;;21.38;46.38;101158.44;5026186;28;20402;-72
2022/09/16 03:35:03;;;;;;;3.78;0.40;;;;;;;21.50;46.35;101156.06;5010454;28;20033;-73
2022/09/16 03:37:33;;;;;;;1.35;0.60;;;;;;;21.85;45.88;101150.72;5011688;28;20026;-72
2022/09/16 03:40:08;;;;;;;4.57;0.75;;;;;;;22.29;44.86;101148.44;5011174;28;20112;-73
2022/09/16 03:42:34;;;;;;;4.72;0.70;;;;;;;22.36;44.89;101155.19;5010174;28;20062;-73
2022/09/16 03:44:59;;;;;;;4.65;0.47;;;;;;;22.33;44.82;101150.00;5010759;28;20041;-73
2022/09/16 03:47:24;;;;;;;7.07;0.63;;;;;;;22.36;44.65;101160.50;5033409;28;20063;-72
2022/09/16 03:49:50;;;;;;;5.53;0.93;;;;;;;22.19;45.01;101156.91;5030495;28;20029;-73
2022/09/16 03:52:17;;;;;;;2.10;0.50;;;;;;;22.66;44.23;101162.44;5030194;28;20044;-73
2022/09/16 03:54:43;;;;;;;2.25;0.50;;;;;;;22.61;44.03;101169.81;5030336;28;20459;-73
2022/09/16 03:57:09;;;;;;;4.55;0.60;;;;;;;20.95;47.33;101164.09;5030135;28;20124;-73
2022/09/16 03:59:34;;;;;;;2.13;0.32;;;;;;;21.62;45.79;101177.66;5030688;28;20029;-73
2022/09/16 04:02:00;;;;;;;5.63;0.90;;;;;;;21.28;46.20;101174.00;5027721;28;20134;-72
2022/09/16 04:04:25;;;;;;;3.38;1.05;;;;;;;20.76;46.88;101175.59;5030893;28;20505;-72
2022/09/16 04:06:50;;;;;;;5.55;1.10;;;;;;;21.29;45.73;101168.59;5029731;28;20112;-73
2022/09/16 04:09:16;;;;;;;3.45;0.95;;;;;;;21.65;45.04;101170.41;5030356;28;20366;-73
2022/09/16 04:11:41;;;;;;;2.90;1.05;;;;;;;21.82;44.86;101163.34;5027636;28;20033;-73
2022/09/16 04:14:07;;;;;;;1.90;0.60;;;;;;;21.88;45.31;101170.16;5030274;28;20021;-73
2022/09/16 04:16:33;;;;;;;5.07;0.55;;;;;;;22.04;45.23;101171.06;5028403;28;20024;-73
2022/09/16 04:18:58;;;;;;;5.85;0.80;;;;;;;21.84;45.07;101165.00;5030421;28;20029;-74
2022/09/16 04:21:24;;;;;;;4.63;0.85;;;;;;;22.01;44.28;101157.91;5024077;28;20101;-72
2022/09/16 04:23:49;;;;;;;7.32;0.85;;;;;;;21.34;45.77;101160.41;5024191;28;20516;-73
2022/09/16 04:26:16;;;;;;;4.68;0.70;;;;;;;21.88;45.82;101159.50;5027784;28;20469;-73
2022/09/16 04:28:41;;;;;;;2.55;0.80;;;;;;;22.00;44.88;101154.38;5014734;28;20389;-72
2022/09/16 04:31:10;;;;;;;3.15;0.80;;;;;;;22.06;44.32;101155.84;5014981;28;20025;-72
2022/09/16 04:33:36;;;;;;;2.38;0.98;;;;;;;21.91;44.41;101154.00;5033590;28;20385;-72
2022/09/16 04:36:13;;;;;;;6.43;0.70;;;;;;;21.76;44.71;101153.88;5036268;28;20025;-73
2022/09/16 04:38:40;;;;;;;4.25;0.60;;;;;;;21.95;45.33;101148.44;5033684;28;20038;-73
2022/09/16 04:41:06;;;;;;;4.18;0.70;;;;;;;21.78;44.43;101133.38;5019087;28;20037;-73
2022/09/16 04:43:32;;;;;;;3.05;0.73;;;;;;;21.78;44.17;101138.69;5034229;28;20030;-73
2022/09/16 04:45:58;;;;;;;2.75;0.57;;;;;;;21.77;44.37;101142.28;5040917;28;20074;-73
2022/09/16 04:48:24;;;;;;;5.00;0.60;;;;;;;21.92;45.39;101145.09;5035365;28;20036;-73
2022/09/16 04:50:51;;;;;;;3.70;1.07;;;;;;;22.00;45.65;101148.22;5031104;28;20035;-74
2022/09/16 04:53:16;;;;;;;1.88;0.65;;;;;;;21.77;45.59;101141.44;5028292;28;20489;-73
2022/09/16 04:55:42;;;;;;;7.85;0.80;;;;;;;21.84;44.85;101133.06;5034043;28;20039;-73
2022/09/16 04:58:08;;;;;;;4.18;0.70;;;;;;;21.60;46.03;101139.66;5032806;28;20112;-74
2022/09/16 05:00:33;;;;;;;4.80;1.25;;;;;;;22.06;44.42;101142.53;5032036;28;20120;-73
2022/09/16 05:02:58;;;;;;;6.10;0.95;;;;;;;21.99;44.97;101135.84;5019426;28;20035;-73
2022/09/16 05:05:24;;;;;;;4.68;1.00;;;;;;;22.00;44.76;101148.22;5032036;28;20034;-73
2022/09/16 05:07:49;;;;;;;4.82;0.75;;;;;;;22.24;44.32;101156.66;5032885;28;20026;-74
2022/09/16 05:10:15;;;;;;;1.07;0.60;;;;;;;22.00;44.60;101158.84;5023859;28;20109;-74
2022/09/16 05:12:40;;;;;;;3.70;0.70;;;;;;;22.16;44.39;101153.56;5013814;28;20037;-74
2022/09/16 05:15:06;;;;;;;4.00;0.75;;;;;;;20.66;47.05;101158.34;5013652;28;20496;-74
2022/09/16 05:17:32;;;;;;;3.80;1.20;;;;;;;20.26;49.42;101161.03;5035471;28;20034;-74
2022/09/16 05:19:57;;;;;;;3.25;0.73;;;;;;;20.92;47.84;101161.59;5018427;28;20055;-74
2022/09/16 05:22:23;;;;;;;7.78;1.25;;;;;;;21.29;47.33;101149.16;5033607;28;20502;-74
2022/09/16 05:24:48;;;;;;;3.00;0.80;;;;;;;21.63;46.00;101155.44;5033318;28;20029;-74
2022/09/16 05:27:14;;;;;;;4.43;1.42;;;;;;;20.83;47.37;101155.78;5032714;28;20028;-74
2022/09/16 05:29:40;;;;;;;5.60;0.80;;;;;;;21.14;47.34;101159.63;5029864;28;20026;-74
2022/09/16 05:32:06;;;;;;;3.17;0.80;;;;;;;21.98;45.31;101161.59;5019976;28;20025;-74
2022/09/16 05:34:32;;;;;;;6.47;0.95;;;;;;;21.51;46.64;101163.09;5032963;28;20060;-74
2022/09/16 05:36:57;;;;;;;5.72;0.93;;;;;;;21.88;45.18;101157.69;5033046;28;20056;-73
2022/09/16 05:39:23;;;;;;;6.65;1.15;;;;;;;21.74;45.68;101158.41;5032622;28;20033;-74
2022/09/16 05:41:51;;;;;;;5.85;0.70;;;;;;;21.71;46.04;101153.25;5031860;28;20056;-74
2022/09/16 05:44:17;;;;;;;5.05;1.15;;;;;;;21.52;45.95;101164.81;5049413;28;20026;-74
2022/09/16 05:46:42;;;;;;;9.75;1.17;;;;;;;21.45;46.10;101159.88;5038358;28;20036;-74
2022/09/16 05:49:08;;;;;;;7.25;1.25;;;;;;;21.85;45.29;101161.38;5018896;28;20079;-74
2022/09/16 05:51:36;;;;;;;4.70;0.80;;;;;;;21.73;46.01;101156.69;5024793;28;20029;-74
2022/09/16 05:54:02;;;;;;;1.63;0.80;;;;;;;21.73;45.90;101162.00;5033561;28;20025;-74
2022/09/16 05:56:30;;;;;;;6.68;1.08;;;;;;;21.87;45.87;101161.28;5031684;28;20025;-74
2022/09/16 05:58:57;;;;;;;6.80;1.20;;;;;;;21.99;45.84;101162.44;5021692;28;20022;-74
2022/09/16 06:01:26;;;;;;;9.38;1.10;;;;;;;22.28;45.62;101162.69;5025144;28;20021;-74
2022/09/16 06:03:53;;;;;;;4.85;0.70;;;;;;;22.59;44.95;101172.56;5031156;28;20086;-74
2022/09/16 06:06:31;;;;;;;6.18;1.42;;;;;;;22.38;45.56;101163.97;5033621;28;20021;-74
2022/09/16 06:08:59;;;;;;;4.90;1.00;;;;;;;22.50;45.14;101168.63;5031361;28;20021;-74
2022/09/16 06:11:26;;;;;;;7.38;1.10;;;;;;;21.61;45.84;101173.28;5032037;28;20021;-74
2022/09/16 06:13:58;;;;;;;5.68;0.88;;;;;;;21.73;47.53;101199.25;5032564;28;20021;-75
2022/09/16 06:16:26;;;;;;;9.15;1.25;;;;;;;18.84;54.66;101225.25;5032325;28;20025;-85
2022/09/16 06:18:52;;;;;;;3.33;0.70;;;;;;;18.37;53.07;101215.53;5022917;28;20034;-78
2022/09/16 06:21:18;;;;;;;2.78;0.50;;;;;;;17.66;54.28;101212.66;5031445;28;20124;-74
2022/09/16 06:23:43;;;;;;;3.67;0.80;;;;;;;17.96;54.38;101194.06;5029346;28;20037;-75
2022/09/16 06:26:17;;;;;;;5.70;0.83;;;;;;;18.21;53.55;101194.03;5030254;28;20036;-75
2022/09/16 06:28:43;;;;;;;7.23;0.70;;;;;;;17.67;55.78;101187.97;5032734;28;20420;-76
2022/09/16 06:31:33;;;;;;;4.30;0.70;;;;;;;19.13;51.49;101173.78;5030739;28;20051;-76
2022/09/16 06:33:58;;;;;;;8.97;0.80;;;;;;;19.23;50.79;101176.06;5031372;28;20045;-75
2022/09/16 06:36:29;;;;;;;4.33;0.70;;;;;;;19.54;50.64;101182.75;5033268;28;20048;-74
2022/09/16 06:38:55;;;;;;;3.17;0.70;;;;;;;19.31;51.02;101192.53;5023117;28;20033;-74
2022/09/16 06:41:21;;;;;;;4.57;0.67;;;;;;;20.01;48.80;101177.22;5036781;28;20217;-74
2022/09/16 06:43:50;;;;;;;7.63;1.20;;;;;;;20.15;49.26;101192.53;5013410;28;20030;-74
2022/09/16 06:46:20;;;;;;;8.77;2.87;;;;;;;20.26;49.44;101186.75;5010495;28;20108;-74
2022/09/16 06:48:49;;;;;;;10.23;1.27;;;;;;;20.36;48.51;101177.44;5020600;28;20492;-74
2022/09/16 06:51:17;;;;;;;6.13;0.90;;;;;;;21.21;47.20;101180.56;5031569;28;20022;-75
2022/09/16 06:53:44;;;;;;;5.63;0.77;;;;;;;20.26;49.48;101174.31;5031796;28;20048;-74
2022/09/16 06:56:12;;;;;;;7.87;1.23;;;;;;;21.30;47.17;101174.81;5017752;28;20037;-74
2022/09/16 06:58:40;;;;;;;7.20;1.13;;;;;;;21.08;47.23;101173.19;5025938;28;20107;-75
2022/09/16 07:01:10;;;;;;;7.63;1.00;;;;;;;21.67;45.88;101173.81;5029847;28;20401;-74
2022/09/16 07:03:37;;;;;;;3.70;0.68;;;;;;;21.64;45.90;101157.19;5030476;28;20037;-74
2022/09/16 07:06:03;;;;;;;5.47;1.00;;;;;;;21.64;45.59;101167.81;5030469;28;20477;-74
2022/09/16 07:08:30;;;;;;;8.88;1.98;;;;;;;21.78;45.42;101164.44;5030662;28;20021;-74
2022/09/16 07:10:57;;;;;;;9.73;0.80;;;;;;;21.90;45.08;101162.94;5032239;28;20049;-74
2022/09/16 07:13:22;;;;;;;8.90;1.10;;;;;;;22.00;45.26;101164.19;5061982;28;20034;-74
2022/09/16 07:15:48;;;;;;;5.80;1.08;;;;;;;22.03;45.45;101170.19;5031365;28;20152;-74
2022/09/16 07:18:13;;;;;;;4.55;0.70;;;;;;;22.25;44.98;101170.84;5031485;28;20482;-74
2022/09/16 07:20:38;;;;;;;6.90;1.10;;;;;;;21.86;45.55;101171.06;5030530;28;20389;-74
2022/09/16 07:23:04;;;;;;;7.07;0.75;;;;;;;22.18;45.85;101179.16;5030990;28;20175;-74
2022/09/16 07:25:30;;;;;;;6.60;1.60;;;;;;;22.09;46.25;101190.31;5031065;28;20037;-74
2022/09/16 07:27:55;;;;;;;6.22;1.00;;;;;;;22.03;46.43;101185.28;5030419;28;20022;-74
2022/09/16 07:30:21;;;;;;;7.50;0.90;;;;;;;22.30;45.62;101192.78;5030302;28;20021;-74
2022/09/16 07:32:46;;;;;;;8.27;0.90;;;;;;;22.43;44.85;101204.50;5031236;28;20029;-74
2022/09/16 07:35:11;;;;;;;11.85;2.08;;;;;;;22.96;43.77;101194.50;5029264;28;20367;-73
2022/09/16 07:37:37;;;;;;;9.63;0.90;;;;;;;22.63;43.85;101194.56;5031067;28;20017;-73
2022/09/16 07:40:03;;;;;;;10.52;0.93;;;;;;;22.70;43.69;101196.78;5032359;28;20022;-74
2022/09/16 07:42:28;;;;;;;6.72;0.93;;;;;;;22.74;44.16;101200.16;5030031;28;20521;-73
2022/09/16 07:44:54;;;;;;;8.85;1.58;;;;;;;22.53;44.01;101195.06;5025980;28;20029;-74
2022/09/16 07:47:19;;;;;;;8.50;2.13;;;;;;;23.39;42.37;101188.53;5029179;28;20086;-73
2022/09/16 07:49:44;;;;;;;4.90;0.70;;;;;;;22.87;43.06;101203.88;5031420;28;20507;-74
2022/09/16 07:52:10;;;;;;;3.15;0.88;;;;;;;23.86;42.49;101203.53;5030695;28;20457;-74
2022/09/16 07:54:35;;;;;;;7.10;0.90;;;;;;;22.07;45.76;101205.50;5029502;28;20025;-75
2022/09/16 07:57:00;;;;;;;5.78;1.13;;;;;;;22.73;44.67;101211.75;5030724;28;20033;-76
2022/09/16 07:59:26;;;;;;;4.00;0.68;;;;;;;23.17;44.52;101216.41;5030315;28;20033;-76
2022/09/16 08:01:51;;;;;;;6.60;0.80;;;;;;;22.13;45.54;101207.84;5029197;28;20025;-76
2022/09/16 08:04:18;;;;;;;3.47;0.65;;;;;;;22.28;45.70;101202.63;5030173;28;20100;-76
2022/09/16 08:06:43;;;;;;;8.45;2.40;;;;;;;20.89;46.67;101207.75;5030527;28;20029;-75
2022/09/16 08:09:08;;;;;;;7.28;1.02;;;;;;;21.77;46.14;101210.59;5029150;28;20075;-75
2022/09/16 08:11:34;;;;;;;4.35;0.80;;;;;;;22.00;45.44;101201.44;5030655;28;20022;-75
2022/09/16 08:14:00;;;;;;;3.63;0.75;;;;;;;22.12;43.47;101205.22;5030494;28;20022;-75
2022/09/16 08:16:26;;;;;;;5.63;1.20;;;;;;;23.02;43.54;101215.44;5030950;28;20056;-75
2022/09/16 08:18:54;;;;;;;6.35;1.10;;;;;;;22.72;44.45;101214.50;5029488;28;20493;-75
2022/09/16 08:21:24;;;;;;;6.47;0.80;;;;;;;23.37;43.85;101233.09;5029684;28;20098;-75
2022/09/16 08:23:50;;;;;;;4.85;0.80;;;;;;;21.96;45.70;101253.09;5029629;28;20026;-75
2022/09/16 08:26:17;;;;;;;6.28;1.10;;;;;;;21.97;46.75;101270.78;5030459;28;20029;-77
2022/09/16 08:28:44;;;;;;;5.13;1.73;;;;;;;20.94;49.92;101268.66;5029981;28;20018;-79
2022/09/16 08:31:10;;;;;;;6.40;1.20;;;;;;;19.54;51.47;101272.91;5030179;28;20025;-76
2022/09/16 08:33:38;;;;;;;4.60;0.90;;;;;;;21.71;47.36;101254.34;5030461;28;20117;-74
2022/09/16 08:36:06;;;;;;;5.18;0.77;;;;;;;21.17;48.42;101252.50;5030246;28;20033;-74
2022/09/16 08:38:33;;;;;;;5.05;0.70;;;;;;;21.06;48.35;101251.25;5027580;28;20037;-74
2022/09/16 08:41:27;;;;;;;8.63;1.45;;;;;;;22.08;46.94;101244.47;5029939;28;20021;-74
2022/09/16 08:44:08;;;;;;;6.93;0.93;;;;;;;21.38;46.15;101247.06;5030822;28;20026;-75
2022/09/16 08:46:37;;;;;;;7.22;1.63;;;;;;;21.76;46.33;101241.69;5041518;28;20032;-76
2022/09/16 08:49:09;;;;;;;5.57;1.00;;;;;;;21.99;45.52;101252.94;5038410;28;20038;-75
2022/09/16 08:51:34;;;;;;;8.55;1.05;;;;;;;22.60;44.96;101258.66;5042378;28;20042;-75
2022/09/16 08:54:10;;;;;;;5.80;0.60;;;;;;;23.06;44.98;101258.78;5011624;28;20121;-75
2022/09/16 08:56:37;;;;;;;8.15;0.90;;;;;;;23.89;44.29;101250.53;5011424;28;20487;-75
2022/09/16 08:59:10;;;;;;;7.82;1.20;;;;;;;23.30;45.09;101269.94;5016050;28;20040;-75
2022/09/16 09:01:42;;;;;;;4.22;0.80;;;;;;;23.57;44.16;101281.78;5017649;28;20117;-75
2022/09/16 09:04:07;;;;;;;9.00;1.20;;;;;;;23.00;44.54;101272.47;5010247;28;20072;-74
2022/09/16 09:06:54;;;;;;;10.43;0.80;;;;;;;23.00;44.06;101283.16;5042430;28;20783;-75
2022/09/16 09:09:23;;;;;;;5.55;2.13;;;;;;;21.47;46.10;101289.16;5043942;28;20109;-75
2022/09/16 09:12:05;;;;;;;5.32;0.68;;;;;;;22.20;46.54;101289.09;5046705;28;20026;-76
2022/09/16 09:14:51;;;;;;;7.85;1.00;;;;;;;22.81;45.29;101276.16;5015354;28;20018;-76
2022/09/16 09:17:34;;;;;;;7.65;1.13;;;;;;;22.33;46.27;101283.13;5047282;28;20057;-76
2022/09/16 09:20:21;;;;;;;4.82;0.88;;;;;;;21.65;47.13;101278.56;5025969;28;20029;-74
2022/09/16 09:23:05;;;;;;;4.30;0.75;;;;;;;22.35;46.50;101275.94;5033540;28;20713;-74
2022/09/16 09:25:38;;;;;;;7.75;1.25;;;;;;;21.98;48.12;101277.81;5034690;28;20112;-74
2022/09/16 09:28:22;;;;;;;10.25;1.30;;;;;;;22.94;46.12;101283.47;5032627;28;20128;-74
2022/09/16 09:31:26;;;;;;;2.85;1.00;;;;;;;23.97;43.97;101280.31;5013602;28;20072;-74
2022/09/16 09:34:09;;;;;;;11.10;2.05;;;;;;;22.91;45.85;101272.97;5029479;28;20088;-74
2022/09/16 09:36:40;;;;;;;7.28;1.50;;;;;;;22.63;45.89;101269.16;5015180;28;20363;-74
2022/09/16 09:39:12;;;;;;;7.50;1.67;;;;;;;24.30;44.22;101259.69;5032577;28;20088;-74
2022/09/16 09:42:06;;;;;;;7.43;1.48;;;;;;;24.78;42.19;101270.97;5045443;28;20467;-75
2022/09/16 09:44:46;;;;;;;6.28;0.80;;;;;;;23.00;42.15;101285.81;5013351;28;20026;-75
2022/09/16 09:47:20;;;;;;;7.00;0.95;;;;;;;23.84;42.06;101284.63;5014443;28;20029;-76
2022/09/16 09:49:50;;;;;;;12.73;1.67;;;;;;;22.66;44.63;101284.97;5044196;28;20033;-76
2022/09/16 09:52:26;;;;;;;5.38;0.90;;;;;;;22.98;42.99;101285.88;5041896;28;20038;-75
2022/09/16 09:54:52;;;;;;;7.20;1.05;;;;;;;22.88;43.22;101290.00;5012347;28;20072;-74
2022/09/16 09:57:21;;;;;;;8.65;0.80;;;;;;;22.18;44.72;101287.44;5025143;28;20076;-74
2022/09/16 09:59:54;;;;;;;8.63;1.13;;;;;;;19.69;50.32;101287.28;5034064;28;20029;-73
2022/09/16 10:02:21;;;;;;;6.28;1.13;;;;;;;22.11;45.62;101276.25;5028557;28;20061;-75
2022/09/16 10:04:48;;;;;;;9.10;0.70;;;;;;;22.92;45.58;101274.72;5062215;28;20025;-75
2022/09/16 10:07:16;;;;;;;6.18;0.80;;;;;;;22.07;46.61;101272.03;5032509;28;20063;-75
2022/09/16 10:09:53;;;;;;;6.30;1.10;;;;;;;22.53;45.78;101269.66;5031106;28;20469;-74
2022/09/16 10:12:33;;;;;;;7.30;0.90;;;;;;;22.76;45.39;101272.00;5028931;28;20077;-74
2022/09/16 10:14:59;;;;;;;9.48;0.93;;;;;;;23.63;45.38;101262.72;5051876;28;20024;-73
2022/09/16 10:17:28;;;;;;;4.63;0.63;;;;;;;23.20;45.93;101269.59;5032462;28;20547;-74
2022/09/16 10:20:04;;;;;;;6.28;1.30;;;;;;;22.81;44.67;101278.81;5031405;28;20025;-74
2022/09/16 10:22:34;;;;;;;14.27;3.85;;;;;;;22.19;47.05;101284.69;5021360;28;20088;-74
2022/09/16 10:25:02;;;;;;;5.13;0.63;;;;;;;21.53;46.50;101288.03;5012638;28;20025;-75
2022/09/16 10:27:36;;;;;;;3.92;0.60;;;;;;;22.30;45.67;101278.81;5012645;28;20022;-75
2022/09/16 10:30:12;;;;;;;5.63;0.80;;;;;;;22.35;45.30;101270.63;5015289;28;20029;-75
2022/09/16 10:32:47;;;;;;;5.05;1.00;;;;;;;21.83;44.48;101269.69;5040798;28;20408;-74
2022/09/16 10:35:27;;;;;;;2.90;0.32;;;;;;;21.86;44.77;101261.53;5031349;28;20033;-74
2022/09/16 10:38:23;;;;;;;3.00;0.60;;;;;;;21.80;44.82;101267.19;5018781;28;20403;-74
2022/09/16 10:40:54;;;;;;;7.43;1.90;;;;;;;21.77;44.67;101271.78;5018551;28;20045;-74
2022/09/16 10:43:21;;;;;;;3.40;0.40;;;;;;;21.88;44.56;101265.94;5029230;28;20052;-75
2022/09/16 10:45:49;;;;;;;5.35;0.70;;;;;;;22.85;43.88;101261.72;5051642;28;20048;-73
2022/09/16 10:48:19;;;;;;;5.75;0.70;;;;;;;22.74;43.41;101261.44;5051851;28;20033;-74
2022/09/16 10:50:59;;;;;;;6.40;0.85;;;;;;;22.73;44.75;101254.38;5035967;28;20880;-73
2022/09/16 10:53:50;;;;;;;4.45;0.60;;;;;;;24.39;42.85;101241.28;5012596;28;20034;-73
2022/09/16 10:56:18;;;;;;;4.45;0.75;;;;;;;23.74;43.26;101252.31;5011878;28;20060;-73
2022/09/16 10:58:43;;;;;;;5.20;0.80;;;;;;;24.12;42.07;101246.47;5027680;28;20092;-73
2022/09/16 11:01:12;;;;;;;6.93;1.10;;;;;;;24.60;41.00;101248.06;5035296;28;20042;-73
2022/09/16 11:04:03;;;;;;;5.25;0.70;;;;;;;24.02;40.97;101248.84;5044427;28;20394;-73
2022/09/16 11:06:50;;;;;;;8.05;0.70;;;;;;;24.02;42.10;101248.00;5010912;28;20068;-73
2022/09/16 11:09:31;;;;;;;7.38;0.70;;;;;;;23.12;41.94;101255.84;5011766;28;20374;-73
2022/09/16 11:12:15;;;;;;;4.80;0.75;;;;;;;23.81;42.50;101245.63;5011573;28;20033;-73
2022/09/16 11:15:08;;;;;;;8.35;0.95;;;;;;;23.15;42.44;101263.66;5027898;28;20044;-72
2022/09/16 11:17:41;;;;;;;;;;;;;;;24.47;38.95;101267.50;5012053;28;20033;-73
2022/09/16 11:20:15;;;;;;;5.53;0.80;;;;;;;23.08;40.93;101275.59;5011084;28;19917;-73
2022/09/16 11:23:01;;;;;;;3.80;1.00;;;;;;;22.48;41.93;101277.03;5024499;28;20065;-73
2022/09/16 11:25:40;;;;;;;2.47;0.70;;;;;;;22.74;41.96;101266.78;5011395;28;20069;-73
2022/09/16 11:28:14;;;;;;;3.03;0.57;;;;;;;24.42;39.19;101266.09;5012135;28;20029;-73
2022/09/16 11:30:54;;;;;;;7.63;0.80;;;;;;;23.57;40.31;101287.09;5037910;28;20038;-73
2022/09/16 11:33:21;;;;;;;6.28;0.90;;;;;;;22.76;41.21;101282.66;5031705;28;20366;-74
2022/09/16 11:36:18;;;;;;;11.18;2.10;;;;;;;23.68;38.83;101280.19;5030978;28;20505;-72
2022/09/16 11:38:55;;;;;;;3.88;0.70;;;;;;;23.50;39.40;101283.94;5031058;28;20140;-73
2022/09/16 11:41:42;;;;;;;7.50;0.77;;;;;;;23.99;38.62;101277.56;5013490;28;20053;-73
2022/09/16 11:44:31;;;;;;;5.63;1.58;;;;;;;23.57;38.92;101276.44;5044124;28;20117;-72